createdAt,value
2023-03-16T00:00:17.817Z,3.66
2023-03-16T00:02:45.024Z,3.53
2023-03-16T00:05:13.222Z,4.01
2023-03-16T00:07:42.101Z,3.94
2023-03-16T00:10:12.578Z,3.37
2023-03-16T00:12:39.915Z,3.27
2023-03-16T00:15:07.505Z,3.26
2023-03-16T00:17:34.924Z,3.55
2023-03-16T00:20:06.979Z,3.24
2023-03-16T00:22:34.298Z,3.28
2023-03-16T00:25:01.977Z,3.15
2023-03-16T00:27:29.074Z,3.30
2023-03-16T00:29:56.420Z,3.13
2023-03-16T00:32:28.989Z,3.20
2023-03-16T00:34:56.101Z,3.46
2023-03-16T00:37:24.037Z,3.70
2023-03-16T00:39:51.711Z,3.74
2023-03-16T00:42:19.859Z,3.17
2023-03-16T00:44:47.011Z,3.24
2023-03-16T00:47:17.181Z,3.22
2023-03-16T00:49:44.779Z,3.22
2023-03-16T00:52:16.326Z,3.35
2023-03-16T00:54:44.359Z,3.39
2023-03-16T00:57:13.264Z,3.15
2023-03-16T00:59:40.476Z,3.30
2023-03-16T01:02:08.602Z,3.16
2023-03-16T01:04:36.208Z,3.38
2023-03-16T01:07:04.758Z,3.40
2023-03-16T01:09:37.023Z,3.14
2023-03-16T01:12:11.724Z,3.09
2023-03-16T01:14:46.895Z,3.03
2023-03-16T01:17:14.611Z,3.08
2023-03-16T01:19:41.940Z,3.07
2023-03-16T01:22:09.995Z,3.20
2023-03-16T01:24:37.902Z,3.20
2023-03-16T01:27:05.745Z,3.37
2023-03-16T01:29:33.276Z,3.35
2023-03-16T01:32:01.080Z,3.03
2023-03-16T01:34:28.019Z,2.91
2023-03-16T01:36:54.907Z,2.98
2023-03-16T01:39:21.866Z,3.00
2023-03-16T01:41:48.896Z,2.70
2023-03-16T01:44:18.605Z,2.62
2023-03-16T01:46:45.492Z,2.87
2023-03-16T01:49:17.003Z,2.78
2023-03-16T01:52:01.215Z,2.48
2023-03-16T01:54:38.026Z,2.08
2023-03-16T01:57:09.653Z,2.03
2023-03-16T01:59:40.878Z,2.48
2023-03-16T02:02:08.750Z,2.24
2023-03-16T02:07:48.341Z,2.07
2023-03-16T02:10:17.557Z,1.85
2023-03-16T02:12:44.574Z,2.09
2023-03-16T02:15:13.636Z,1.89
2023-03-16T02:17:42.364Z,1.99
2023-03-16T02:20:42.843Z,2.11
2023-03-16T02:23:18.644Z,1.89
2023-03-16T02:26:01.938Z,1.68
2023-03-16T02:28:36.258Z,1.69
2023-03-16T02:31:04.412Z,1.71
2023-03-16T02:33:33.207Z,2.07
2023-03-16T02:36:00.171Z,1.74
2023-03-16T02:38:27.040Z,2.13
2023-03-16T02:41:09.742Z,1.55
2023-03-16T02:43:38.561Z,1.86
2023-03-16T02:46:05.827Z,1.64
2023-03-16T02:48:44.356Z,1.59
2023-03-16T02:51:11.842Z,1.45
2023-03-16T02:53:38.894Z,1.63
2023-03-16T02:56:05.941Z,1.62
2023-03-16T02:58:32.914Z,1.43
2023-03-16T03:00:59.924Z,1.28
2023-03-16T03:03:26.891Z,1.26
2023-03-16T03:05:53.857Z,1.63
2023-03-16T03:08:23.675Z,1.54
2023-03-16T03:10:50.534Z,1.81
2023-03-16T03:13:17.248Z,1.42
2023-03-16T03:15:44.250Z,1.38
2023-03-16T03:18:11.309Z,1.54
2023-03-16T03:20:38.211Z,1.57
2023-03-16T03:23:05.669Z,1.63
2023-03-16T03:25:35.067Z,1.52
2023-03-16T03:28:05.711Z,1.82
2023-03-16T03:30:32.760Z,1.34
2023-03-16T03:32:59.747Z,1.54
2023-03-16T03:35:26.869Z,1.42
2023-03-16T03:37:54.204Z,1.59
2023-03-16T03:40:21.702Z,1.28
2023-03-16T03:42:49.679Z,1.59
2023-03-16T03:45:16.793Z,1.65
2023-03-16T03:47:43.966Z,1.53
2023-03-16T03:50:12.497Z,1.55
2023-03-16T03:52:39.480Z,1.42
2023-03-16T03:55:07.094Z,1.55
2023-03-16T03:57:33.984Z,1.71
2023-03-16T04:00:00.712Z,1.57
2023-03-16T04:02:27.870Z,1.59
2023-03-16T04:04:54.958Z,1.32
2023-03-16T04:07:21.909Z,1.25
2023-03-16T04:09:48.766Z,0.98
2023-03-16T04:12:15.446Z,1.13
2023-03-16T04:14:42.317Z,1.37
2023-03-16T04:17:09.003Z,1.40
2023-03-16T04:19:35.992Z,1.56
2023-03-16T04:22:02.909Z,1.69
2023-03-16T04:24:29.604Z,1.56
2023-03-16T04:26:56.443Z,1.81
2023-03-16T04:29:25.526Z,1.70
2023-03-16T04:31:53.987Z,1.69
2023-03-16T04:34:25.148Z,1.29
2023-03-16T04:37:12.092Z,1.38
2023-03-16T04:45:51.045Z,1.58
2023-03-16T04:48:18.446Z,1.61
2023-03-16T04:50:45.988Z,2.09
2023-03-16T04:53:13.621Z,1.84
2023-03-16T04:55:41.973Z,2.07
2023-03-16T04:58:08.959Z,2.33
2023-03-16T05:00:35.861Z,2.48
2023-03-16T05:03:02.966Z,1.97
2023-03-16T05:05:30.335Z,2.40
2023-03-16T05:07:57.335Z,1.52
2023-03-16T05:10:24.022Z,1.88
2023-03-16T05:12:50.896Z,1.82
2023-03-16T05:15:17.594Z,2.32
2023-03-16T05:17:44.569Z,1.88
2023-03-16T05:20:15.845Z,2.53
2023-03-16T05:22:44.219Z,2.58
2023-03-16T05:25:15.195Z,2.65
2023-03-16T05:27:46.692Z,2.66
2023-03-16T05:30:14.581Z,2.93
2023-03-16T05:32:41.488Z,2.72
2023-03-16T05:35:09.079Z,2.78
2023-03-16T05:37:38.254Z,2.98
2023-03-16T05:40:14.500Z,3.44
2023-03-16T05:42:41.440Z,4.05
2023-03-16T05:45:09.057Z,5.54
2023-03-16T05:47:37.417Z,4.81
2023-03-16T05:50:06.076Z,5.46
2023-03-16T05:52:34.020Z,5.62
2023-03-16T05:55:01.029Z,5.95
2023-03-16T05:57:27.910Z,6.57
2023-03-16T05:59:54.860Z,7.56
2023-03-16T06:02:21.781Z,7.65
2023-03-16T06:04:48.653Z,8.13
2023-03-16T06:07:15.311Z,8.00
2023-03-16T06:09:42.270Z,8.53
2023-03-16T06:12:09.814Z,8.46
2023-03-16T06:14:36.971Z,8.64
2023-03-16T06:17:03.826Z,8.24
2023-03-16T06:19:30.533Z,7.09
2023-03-16T06:21:57.458Z,7.72
2023-03-16T06:24:24.409Z,9.71
2023-03-16T06:26:51.295Z,10.33
2023-03-16T06:29:18.212Z,9.81
2023-03-16T06:31:45.078Z,8.65
2023-03-16T06:34:12.028Z,9.24
2023-03-16T06:36:39.946Z,8.73
2023-03-16T06:39:07.015Z,7.97
2023-03-16T06:41:35.841Z,9.78
2023-03-16T06:44:03.036Z,10.47
2023-03-16T06:46:29.890Z,11.30
2023-03-16T06:48:56.547Z,10.56
2023-03-16T06:51:23.376Z,10.07
2023-03-16T06:53:50.039Z,10.61
2023-03-16T06:56:16.941Z,11.33
2023-03-16T06:58:43.873Z,9.93
2023-03-16T07:01:10.895Z,9.96
2023-03-16T07:03:37.790Z,10.28
2023-03-16T07:06:04.644Z,10.09
2023-03-16T07:08:31.604Z,9.18
2023-03-16T07:10:58.530Z,10.07
2023-03-16T07:13:26.072Z,10.31
2023-03-16T07:15:53.188Z,9.99
2023-03-16T07:18:23.005Z,10.26
2023-03-16T07:20:49.849Z,10.23
2023-03-16T07:23:16.570Z,9.78
2023-03-16T07:25:44.864Z,9.15
2023-03-16T07:28:11.932Z,8.66
2023-03-16T07:30:38.853Z,8.45
2023-03-16T07:33:05.783Z,8.46
2023-03-16T07:35:32.745Z,7.69
2023-03-16T07:37:59.583Z,7.91
2023-03-16T07:40:26.394Z,7.91
2023-03-16T07:42:53.733Z,7.50
2023-03-16T07:45:21.711Z,9.21
2023-03-16T07:47:49.202Z,9.13
2023-03-16T07:50:19.478Z,9.17
2023-03-16T07:52:46.537Z,8.69
2023-03-16T07:55:14.205Z,9.45
2023-03-16T07:57:42.504Z,9.56
2023-03-16T08:00:14.374Z,9.20
2023-03-16T08:02:42.052Z,10.31
2023-03-16T08:05:11.116Z,10.80
2023-03-16T08:07:38.091Z,9.90
2023-03-16T08:10:05.480Z,9.22
2023-03-16T08:12:33.974Z,10.02
2023-03-16T08:15:00.853Z,10.73
2023-03-16T08:17:29.829Z,10.27
2023-03-16T08:19:56.740Z,9.86
2023-03-16T08:22:24.552Z,9.64
2023-03-16T08:24:52.143Z,9.51
2023-03-16T08:27:20.603Z,9.99
2023-03-16T08:29:47.515Z,9.46
2023-03-16T08:32:14.752Z,9.76
2023-03-16T08:34:41.634Z,9.52
2023-03-16T08:37:09.879Z,9.13
2023-03-16T08:39:36.731Z,9.10
2023-03-16T08:42:03.433Z,9.07
2023-03-16T08:44:30.413Z,9.52
2023-03-16T08:46:57.362Z,9.60
2023-03-16T08:49:24.314Z,8.50
2023-03-16T08:51:51.249Z,7.19
2023-03-16T08:54:18.157Z,7.93
2023-03-16T08:56:45.029Z,7.67
2023-03-16T08:59:27.081Z,7.87
2023-03-16T09:01:56.431Z,8.20
2023-03-16T09:04:23.842Z,8.28
2023-03-16T09:07:09.859Z,8.27
2023-03-16T09:09:37.189Z,7.98
2023-03-16T09:12:06.218Z,7.97
2023-03-16T09:14:33.551Z,7.76
2023-03-16T09:17:00.410Z,7.14
2023-03-16T09:20:21.889Z,6.91
2023-03-16T09:22:52.707Z,7.27
2023-03-16T09:25:20.667Z,6.94
2023-03-16T09:27:47.528Z,8.27
2023-03-16T09:30:14.520Z,8.37
2023-03-16T09:33:22.989Z,8.51
2023-03-16T09:35:49.973Z,8.36
2023-03-16T09:38:18.070Z,9.26
2023-03-16T09:40:47.291Z,9.34
2023-03-16T09:43:39.179Z,8.77
2023-03-16T09:46:15.422Z,8.81
2023-03-16T09:48:42.484Z,8.67
2023-03-16T09:51:23.057Z,9.81
2023-03-16T09:53:53.176Z,9.80
2023-03-16T09:56:33.885Z,10.15
2023-03-16T09:59:01.229Z,10.14
2023-03-16T10:01:38.207Z,9.95
2023-03-16T10:04:47.326Z,10.60
2023-03-16T10:07:34.577Z,10.53
2023-03-16T10:10:34.052Z,10.91
2023-03-16T10:13:01.692Z,10.62
2023-03-16T10:15:32.870Z,10.75
2023-03-16T10:18:13.631Z,10.69
2023-03-16T10:20:42.154Z,11.02
2023-03-16T10:23:17.505Z,10.54
2023-03-16T10:25:48.511Z,10.53
2023-03-16T10:28:18.031Z,10.41
2023-03-16T10:30:45.050Z,9.81
2023-03-16T10:33:30.501Z,10.80
2023-03-16T10:36:06.148Z,11.08
2023-03-16T10:38:47.034Z,11.12
2023-03-16T10:41:21.631Z,10.72
2023-03-16T10:43:55.756Z,10.19
2023-03-16T10:46:23.493Z,9.75
2023-03-16T10:49:01.908Z,9.68
2023-03-16T10:51:31.403Z,9.70
2023-03-16T10:54:20.494Z,10.22
2023-03-16T10:56:50.684Z,9.57
2023-03-16T10:59:34.590Z,9.80
2023-03-16T11:02:16.687Z,10.50
2023-03-16T11:04:43.631Z,10.34
2023-03-16T11:07:17.611Z,10.39
2023-03-16T11:09:45.072Z,10.75
2023-03-16T11:12:31.457Z,10.27
2023-03-16T11:15:09.368Z,10.64
2023-03-16T11:17:45.158Z,10.71
2023-03-16T11:20:18.262Z,10.05
2023-03-16T11:22:47.336Z,10.61
2023-03-16T11:25:22.747Z,9.47
2023-03-16T11:28:13.281Z,9.98
2023-03-16T11:31:02.959Z,9.85
2023-03-16T11:33:31.230Z,10.10
2023-03-16T11:36:14.137Z,10.47
2023-03-16T11:38:56.828Z,10.12
2023-03-16T11:41:31.160Z,9.89
2023-03-16T11:44:10.493Z,9.50
2023-03-16T11:46:42.855Z,9.73
2023-03-16T11:49:36.115Z,10.06
2023-03-16T11:52:17.881Z,10.38
2023-03-16T11:54:55.811Z,8.95
2023-03-16T11:57:44.394Z,9.75
2023-03-16T12:00:47.852Z,10.28
2023-03-16T12:03:23.095Z,10.26
2023-03-16T12:06:05.709Z,10.28
2023-03-16T12:08:53.781Z,10.77
2023-03-16T12:11:46.842Z,10.81
2023-03-16T12:14:35.364Z,11.20
2023-03-16T12:17:11.808Z,11.73
2023-03-16T12:19:57.607Z,11.50
2023-03-16T12:22:45.757Z,10.47
2023-03-16T12:25:22.408Z,10.43
2023-03-16T12:27:54.956Z,10.84
2023-03-16T12:30:36.792Z,10.58
2023-03-16T12:33:18.994Z,10.15
2023-03-16T12:36:07.260Z,10.80
2023-03-16T12:38:45.074Z,10.32
2023-03-16T12:41:23.246Z,9.86
2023-03-16T12:44:14.399Z,10.36
2023-03-16T12:47:00.294Z,10.11
2023-03-16T12:49:28.961Z,10.27
2023-03-16T12:52:01.760Z,10.06
2023-03-16T12:54:29.244Z,10.24
2023-03-16T12:57:07.514Z,10.65
2023-03-16T12:59:45.817Z,10.72
2023-03-16T13:02:30.640Z,11.12
2023-03-16T13:05:18.748Z,10.17
2023-03-16T13:07:50.593Z,9.38
2023-03-16T13:10:21.032Z,9.39
2023-03-16T13:12:48.374Z,9.44
2023-03-16T13:15:19.553Z,9.22
2023-03-16T13:17:48.541Z,9.58
2023-03-16T13:20:30.825Z,10.11
2023-03-16T13:23:18.465Z,10.05
2023-03-16T13:26:00.418Z,10.00
2023-03-16T13:28:32.840Z,10.44
2023-03-16T13:31:00.732Z,10.44
2023-03-16T13:33:31.300Z,10.19
2023-03-16T13:35:59.972Z,9.16
2023-03-16T13:38:28.792Z,9.72
2023-03-16T13:40:58.349Z,9.73
2023-03-16T13:43:29.061Z,10.41
2023-03-16T13:45:56.049Z,10.68
2023-03-16T13:48:23.183Z,10.65
2023-03-16T13:50:54.980Z,10.29
2023-03-16T13:53:29.154Z,9.80
2023-03-16T13:55:57.696Z,9.60
2023-03-16T13:58:37.342Z,9.39
2023-03-16T14:01:16.198Z,9.93
2023-03-16T14:03:43.681Z,9.90
2023-03-16T14:06:29.133Z,9.86
2023-03-16T14:09:01.538Z,9.61
2023-03-16T14:11:28.713Z,9.63
2023-03-16T14:13:57.930Z,9.49
2023-03-16T14:16:28.208Z,9.45
2023-03-16T14:19:03.067Z,9.24
2023-03-16T14:21:32.073Z,9.15
2023-03-16T14:24:05.055Z,9.98
2023-03-16T14:26:42.835Z,9.91
2023-03-16T14:29:20.517Z,9.12
2023-03-16T14:31:47.393Z,8.70
2023-03-16T14:34:30.739Z,8.40
2023-03-16T14:37:12.403Z,8.70
2023-03-16T14:39:40.699Z,8.64
2023-03-16T14:42:28.841Z,9.36
2023-03-16T14:44:57.407Z,9.27
2023-03-16T15:01:48.221Z,8.54
2023-03-16T15:04:17.481Z,9.49
2023-03-16T15:06:44.707Z,9.27
2023-03-16T15:09:34.601Z,9.30
2023-03-16T15:12:01.790Z,8.86
2023-03-16T15:14:46.918Z,8.17
2023-03-16T15:17:13.862Z,8.53
2023-03-16T15:19:41.308Z,8.95
2023-03-16T15:22:11.471Z,8.61
2023-03-16T15:24:38.489Z,8.67
2023-03-16T15:27:16.571Z,8.36
2023-03-16T15:29:43.431Z,7.95
2023-03-16T15:32:13.185Z,7.82
2023-03-16T15:34:40.051Z,7.70
2023-03-16T15:37:06.850Z,7.64
2023-03-16T15:39:33.741Z,7.49
2023-03-16T15:42:00.640Z,7.74
2023-03-16T15:44:28.173Z,7.67
2023-03-16T15:46:56.012Z,7.62
2023-03-16T15:49:23.644Z,8.36
2023-03-16T15:51:50.538Z,8.45
2023-03-16T15:54:17.390Z,8.42
2023-03-16T15:56:53.726Z,8.36
2023-03-16T15:59:23.612Z,8.44
2023-03-16T16:01:50.882Z,8.69
2023-03-16T16:04:20.366Z,8.30
2023-03-16T16:06:48.175Z,8.02
2023-03-16T16:09:15.268Z,8.19
2023-03-16T16:11:42.543Z,8.18
2023-03-16T16:14:17.460Z,8.19
2023-03-16T16:16:46.130Z,8.32
2023-03-16T16:19:14.490Z,8.56
2023-03-16T16:21:41.781Z,8.30
2023-03-16T16:24:09.760Z,7.99
2023-03-16T16:26:50.912Z,8.06
2023-03-16T16:29:22.889Z,7.41
2023-03-16T16:31:51.594Z,7.32
2023-03-16T16:34:29.709Z,7.16
2023-03-16T16:36:57.530Z,7.19
2023-03-16T16:39:24.856Z,6.65
2023-03-16T16:41:54.779Z,6.94
2023-03-16T16:44:27.777Z,6.99
2023-03-16T16:46:55.355Z,7.06
2023-03-16T16:49:31.119Z,6.94
2023-03-16T16:51:58.809Z,7.52
2023-03-16T16:54:29.089Z,7.17
2023-03-16T16:56:58.379Z,7.33
2023-03-16T16:59:27.462Z,7.55
2023-03-16T17:01:54.516Z,7.65
2023-03-16T17:04:24.860Z,7.14
2023-03-16T17:06:55.730Z,7.42
2023-03-16T17:09:23.832Z,7.51
2023-03-16T17:11:51.420Z,7.32
2023-03-16T17:14:20.641Z,7.28
2023-03-16T17:16:48.626Z,7.70
2023-03-16T17:19:23.431Z,7.70
2023-03-16T17:21:55.674Z,6.64
2023-03-16T17:24:23.021Z,7.27
2023-03-16T17:26:53.203Z,7.06
2023-03-16T17:29:29.163Z,7.51
2023-03-16T17:31:56.302Z,7.87
2023-03-16T17:34:25.119Z,7.96
2023-03-16T17:36:52.701Z,7.95
2023-03-16T17:39:24.613Z,8.00
2023-03-16T17:41:59.725Z,6.97
2023-03-16T17:44:30.559Z,7.41
2023-03-16T17:46:57.446Z,6.79
2023-03-16T17:49:28.525Z,6.77
2023-03-16T17:51:56.036Z,6.21
2023-03-16T17:54:23.105Z,6.13
2023-03-16T17:56:52.246Z,6.77
2023-03-16T17:59:20.789Z,6.75
2023-03-16T18:01:48.102Z,7.35
2023-03-16T18:04:19.842Z,7.35
2023-03-16T18:06:49.527Z,7.15
2023-03-16T18:09:18.011Z,7.22
2023-03-16T18:11:47.778Z,7.17
2023-03-16T18:14:25.846Z,7.14
2023-03-16T18:16:52.906Z,7.32
2023-03-16T18:19:24.646Z,6.67
2023-03-16T18:21:53.748Z,6.66
2023-03-16T18:24:22.423Z,6.77
2023-03-16T18:26:49.712Z,6.71
2023-03-16T18:29:16.556Z,6.45
2023-03-16T18:31:43.582Z,6.60
2023-03-16T18:34:20.733Z,5.73
2023-03-16T18:36:47.698Z,6.24
2023-03-16T18:39:19.005Z,5.91
2023-03-16T18:41:47.144Z,6.35
2023-03-16T18:44:24.076Z,5.76
2023-03-16T18:46:52.053Z,6.55
2023-03-16T18:49:36.242Z,6.22
2023-03-16T18:52:04.018Z,5.55
2023-03-16T18:54:32.851Z,5.28
2023-03-16T18:56:59.891Z,4.82
2023-03-16T18:59:27.330Z,5.22
2023-03-16T19:01:55.234Z,5.01
2023-03-16T19:04:27.038Z,5.28
2023-03-16T19:06:55.415Z,5.02
2023-03-16T19:09:28.204Z,5.11
2023-03-16T19:11:55.227Z,5.16
2023-03-16T19:14:27.391Z,5.10
2023-03-16T19:16:55.083Z,5.10
2023-03-16T19:19:23.469Z,5.37
2023-03-16T19:21:55.491Z,5.59
2023-03-16T19:24:29.105Z,5.85
2023-03-16T19:26:59.213Z,5.36
2023-03-16T19:29:33.903Z,5.47
2023-03-16T19:32:01.437Z,4.89
2023-03-16T19:34:28.717Z,5.10
2023-03-16T19:36:55.748Z,5.22
2023-03-16T19:39:22.752Z,4.70
2023-03-16T19:41:54.882Z,4.10
2023-03-16T19:44:23.876Z,4.26
2023-03-16T19:46:50.942Z,4.77
2023-03-16T19:49:20.316Z,4.71
2023-03-16T19:51:48.336Z,4.80
2023-03-16T19:54:22.766Z,4.74
2023-03-16T19:56:50.694Z,5.25
2023-03-16T19:59:17.821Z,4.97
2023-03-16T20:01:45.159Z,5.01
2023-03-16T20:04:22.280Z,4.68
2023-03-16T20:06:50.091Z,4.82
2023-03-16T20:09:19.536Z,4.54
2023-03-16T20:11:47.855Z,4.23
2023-03-16T20:14:26.889Z,4.11
2023-03-16T20:16:53.819Z,3.30
2023-03-16T20:19:22.344Z,3.28
2023-03-16T20:21:49.609Z,3.56
2023-03-16T20:24:19.102Z,4.22
2023-03-16T20:26:47.694Z,4.43
2023-03-16T20:29:28.130Z,4.42
2023-03-16T20:31:55.116Z,4.24
2023-03-16T20:34:25.146Z,3.79
2023-03-16T20:36:52.045Z,3.85
2023-03-16T20:39:19.002Z,3.42
2023-03-16T20:41:45.978Z,4.06
2023-03-16T20:44:15.398Z,3.61
2023-03-16T20:46:44.818Z,3.93
2023-03-16T20:49:25.420Z,3.79
2023-03-16T20:51:52.805Z,3.81
2023-03-16T20:54:20.452Z,3.26
2023-03-16T20:56:48.254Z,3.76
2023-03-16T20:59:24.026Z,3.49
2023-03-16T21:01:54.707Z,3.09
2023-03-16T21:04:27.419Z,3.14
2023-03-16T21:06:55.949Z,3.27
2023-03-16T21:09:22.954Z,3.36
2023-03-16T21:11:49.982Z,3.41
2023-03-16T21:14:20.276Z,3.18
2023-03-16T21:16:47.700Z,2.95
2023-03-16T21:19:16.502Z,2.90
2023-03-16T21:21:43.783Z,2.53
2023-03-16T21:24:10.791Z,2.28
2023-03-16T21:26:38.459Z,2.23
2023-03-16T21:29:08.440Z,2.81
2023-03-16T21:31:35.561Z,2.22
2023-03-16T21:34:03.106Z,2.19
2023-03-16T21:36:29.983Z,2.27
2023-03-16T21:38:57.268Z,1.80
2023-03-16T21:41:24.313Z,2.34
2023-03-16T21:43:51.836Z,1.91
2023-03-16T21:46:25.696Z,2.25
2023-03-16T21:48:54.878Z,1.87
2023-03-16T21:51:25.413Z,1.75
2023-03-16T21:53:53.645Z,1.39
2023-03-16T21:56:23.069Z,1.04
2023-03-16T21:58:50.592Z,0.69
2023-03-16T22:01:23.563Z,1.13
2023-03-16T22:03:55.642Z,1.07
2023-03-16T22:06:23.661Z,1.20
2023-03-16T22:08:51.547Z,1.50
2023-03-16T22:11:21.481Z,1.03
2023-03-16T22:13:49.375Z,1.00
2023-03-16T22:16:18.894Z,1.11
2023-03-16T22:18:47.422Z,1.61
2023-03-16T22:21:37.792Z,1.00
2023-03-16T22:24:07.336Z,2.03
2023-03-16T22:26:34.309Z,1.69
2023-03-16T22:29:02.066Z,1.16
2023-03-16T22:31:34.383Z,0.95
2023-03-16T22:34:03.199Z,1.29
2023-03-16T22:36:31.636Z,1.24
2023-03-16T22:39:00.995Z,1.26
2023-03-16T22:41:28.928Z,2.17
2023-03-16T22:43:56.029Z,2.06
2023-03-16T22:46:24.630Z,1.66
2023-03-16T22:48:52.405Z,2.23
2023-03-16T22:51:32.154Z,2.57
2023-03-16T22:54:02.676Z,2.17
2023-03-16T22:56:30.307Z,1.88
2023-03-16T22:59:03.507Z,2.11
2023-03-16T23:01:51.853Z,2.13
2023-03-16T23:04:20.123Z,1.70
2023-03-16T23:06:48.734Z,0.91
2023-03-16T23:09:16.762Z,0.84
2023-03-16T23:11:45.142Z,1.48
2023-03-16T23:14:27.978Z,1.49
2023-03-16T23:16:54.969Z,1.27
2023-03-16T23:19:32.062Z,1.43
2023-03-16T23:22:05.106Z,1.16
2023-03-16T23:24:33.061Z,1.01
2023-03-16T23:27:00.057Z,1.04
2023-03-16T23:29:27.930Z,0.75
2023-03-16T23:31:54.940Z,1.04
2023-03-16T23:34:24.073Z,0.95
2023-03-16T23:36:51.549Z,0.63
2023-03-16T23:39:18.737Z,0.47
2023-03-16T23:41:47.645Z,0.50
2023-03-16T23:44:26.374Z,0.99
2023-03-16T23:46:53.730Z,0.40
2023-03-16T23:49:31.257Z,0.79
2023-03-16T23:51:58.784Z,1.13
2023-03-16T23:54:28.805Z,1.07
2023-03-16T23:56:55.785Z,0.83
2023-03-16T23:59:23.654Z,1.10
